Time,TemperatureF,DewpointF,PressureIn,WindDirection,WindDirectionDegrees,WindSpeedMPH,WindSpeedGustMPH,Humidity,HourlyPrecipIn,Conditions,Clouds,dailyrainin,SoftwareType,DateUTC
2013-09-15 00:01:00,58.3,56.3,30.10,WNW,285,0.0,0.0,93,0.00,,---,0.00,VWS V14.01,2013-09-15 04:01:00,
2013-09-15 00:02:00,58.3,56.0,30.10,WNW,285,0.0,0.0,92,0.00,,---,0.00,VWS V14.01,2013-09-15 04:02:00,
2013-09-15 00:07:00,58.2,56.2,30.09,WNW,285,0.0,0.0,93,0.00,,---,0.00,VWS V14.01,2013-09-15 04:07:00,
2013-09-15 00:12:00,58.1,56.1,30.09,WNW,284,0.0,0.0,93,0.00,,---,0.00,VWS V14.01,2013-09-15 04:12:00,
2013-09-15 00:17:00,58.0,56.0,30.09,WNW,285,0.0,0.0,93,0.00,,---,0.00,VWS V14.01,2013-09-15 04:17:00,
2013-09-15 00:22:00,58.0,56.0,30.09,WNW,285,0.0,0.0,93,0.00,,---,0.00,VWS V14.01,2013-09-15 04:22:00,
2013-09-15 00:27:00,57.9,55.9,30.10,WNW,285,0.0,0.0,93,0.00,,---,0.00,VWS V14.01,2013-09-15 04:27:00,
2013-09-15 00:32:00,57.8,55.8,30.10,WNW,285,0.0,0.0,93,0.00,,---,0.00,VWS V14.01,2013-09-15 04:32:00,
2013-09-15 00:37:00,57.8,55.8,30.10,WNW,285,0.0,0.0,93,0.00,,---,0.00,VWS V14.01,2013-09-15 04:37:00,
2013-09-15 00:42:00,57.8,55.8,30.10,WNW,285,0.0,0.0,93,0.00,,---,0.00,VWS V14.01,2013-09-15 04:42:00,
2013-09-15 00:47:00,57.8,55.8,30.10,WNW,284,0.0,0.0,93,0.00,,---,0.00,VWS V14.01,2013-09-15 04:47:00,
2013-09-15 00:52:00,57.7,55.7,30.10,WNW,285,0.0,0.0,93,0.00,,---,0.00,VWS V14.01,2013-09-15 04:52:00,
2013-09-15 00:57:00,57.7,55.7,30.10,WNW,284,0.0,0.0,93,0.00,,---,0.00,VWS V14.01,2013-09-15 04:57:00,
2013-09-15 01:02:00,57.7,55.7,30.10,WNW,285,0.0,0.0,93,0.00,,---,0.00,VWS V14.01,2013-09-15 05:02:00,
2013-09-15 01:07:00,57.6,55.6,30.10,WNW,285,0.0,0.0,93,0.00,,---,0.00,VWS V14.01,2013-09-15 05:07:00,
2013-09-15 01:12:00,57.5,55.5,30.10,WNW,284,0.0,0.0,93,0.00,,---,0.00,VWS V14.01,2013-09-15 05:12:00,
2013-09-15 01:17:00,57.5,55.5,30.10,WNW,284,0.0,0.0,93,0.00,,---,0.00,VWS V14.01,2013-09-15 05:17:00,
2013-09-15 01:22:00,57.4,55.4,30.10,WNW,285,0.0,0.0,93,0.00,,---,0.00,VWS V14.01,2013-09-15 05:22:00,
2013-09-15 01:27:00,57.3,55.3,30.10,WNW,285,0.0,0.0,93,0.00,,---,0.00,VWS V14.01,2013-09-15 05:27:00,
2013-09-15 01:32:00,57.3,55.6,30.10,WNW,285,0.0,0.0,94,0.00,,---,0.00,VWS V14.01,2013-09-15 05:32:00,
2013-09-15 01:37:00,57.3,55.6,30.10,WNW,285,0.0,0.0,94,0.00,,---,0.00,VWS V14.01,2013-09-15 05:37:00,
2013-09-15 01:42:00,57.3,55.6,30.10,WNW,284,0.0,0.0,94,0.00,,---,0.00,VWS V14.01,2013-09-15 05:42:00,
2013-09-15 01:47:00,57.2,55.2,30.10,WNW,285,0.0,0.0,93,0.00,,---,0.00,VWS V14.01,2013-09-15 05:47:00,
2013-09-15 01:52:00,57.1,55.1,30.10,WNW,285,0.0,0.0,93,0.00,,---,0.00,VWS V14.01,2013-09-15 05:52:00,
2013-09-15 01:57:00,57.0,55.0,30.10,WNW,284,0.0,0.0,93,0.00,,---,0.00,VWS V14.01,2013-09-15 05:57:00,
2013-09-15 02:02:00,56.9,54.9,30.11,WNW,284,0.0,0.0,93,0.00,,---,0.00,VWS V14.01,2013-09-15 06:02:00,
2013-09-15 02:07:00,56.8,54.8,30.11,WNW,285,0.0,0.0,93,0.00,,---,0.00,VWS V14.01,2013-09-15 06:07:00,
2013-09-15 02:12:00,56.7,55.0,30.10,WNW,284,0.0,0.0,94,0.00,,---,0.00,VWS V14.01,2013-09-15 06:12:00,
2013-09-15 02:17:00,56.6,54.9,30.10,WNW,285,0.0,0.0,94,0.00,,---,0.00,VWS V14.01,2013-09-15 06:17:00,
2013-09-15 02:22:00,56.5,54.5,30.10,WNW,285,0.0,0.0,93,0.00,,---,0.00,VWS V14.01,2013-09-15 06:22:00,
2013-09-15 02:27:00,56.4,54.4,30.11,WNW,285,0.0,0.0,93,0.00,,---,0.00,VWS V14.01,2013-09-15 06:27:00,
2013-09-15 02:32:00,56.3,54.3,30.11,WNW,285,0.0,0.0,93,0.00,,---,0.00,VWS V14.01,2013-09-15 06:32:00,
2013-09-15 02:37:00,56.3,54.6,30.11,WNW,285,0.0,0.0,94,0.00,,---,0.00,VWS V14.01,2013-09-15 06:37:00,
2013-09-15 02:42:00,56.2,54.5,30.11,WNW,285,0.0,1.0,94,0.00,,---,0.00,VWS V14.01,2013-09-15 06:42:00,
2013-09-15 02:47:00,56.4,55.0,30.11,WNW,284,1.0,1.0,95,0.00,,---,0.00,VWS V14.01,2013-09-15 06:47:00,
2013-09-15 02:52:00,56.6,54.9,30.11,WNW,285,1.0,1.0,94,0.00,,---,0.00,VWS V14.01,2013-09-15 06:52:00,
2013-09-15 02:57:00,56.7,55.0,30.11,WNW,285,0.0,1.0,94,0.00,,---,0.00,VWS V14.01,2013-09-15 06:57:00,
2013-09-15 03:02:00,56.6,54.9,30.11,WNW,284,0.0,1.0,94,0.00,,---,0.00,VWS V14.01,2013-09-15 07:02:00,
2013-09-15 03:07:00,56.5,54.8,30.11,WNW,285,0.0,0.0,94,0.00,,---,0.00,VWS V14.01,2013-09-15 07:07:00,
2013-09-15 03:12:00,56.4,54.7,30.11,WNW,285,0.0,0.0,94,0.00,,---,0.00,VWS V14.01,2013-09-15 07:12:00,
2013-09-15 03:17:00,56.3,54.6,30.11,WNW,284,0.0,1.0,94,0.00,,---,0.00,VWS V14.01,2013-09-15 07:17:00,
2013-09-15 03:22:00,56.2,54.5,30.11,WNW,285,0.0,1.0,94,0.00,,---,0.00,VWS V14.01,2013-09-15 07:22:00,
2013-09-15 03:27:00,56.2,54.5,30.11,WNW,285,0.0,1.0,94,0.00,,---,0.00,VWS V14.01,2013-09-15 07:27:00,
2013-09-15 03:32:00,56.2,54.5,30.11,WNW,284,0.0,1.0,94,0.00,,---,0.00,VWS V14.01,2013-09-15 07:32:00,
2013-09-15 03:37:00,56.1,54.4,30.11,WNW,285,0.0,0.0,94,0.00,,---,0.00,VWS V14.01,2013-09-15 07:37:00,
2013-09-15 03:42:00,56.0,54.3,30.11,WNW,285,0.0,0.0,94,0.00,,---,0.00,VWS V14.01,2013-09-15 07:42:00,
2013-09-15 03:47:00,56.0,54.3,30.11,WNW,285,0.0,0.0,94,0.00,,---,0.00,VWS V14.01,2013-09-15 07:47:00,
2013-09-15 03:52:00,56.1,54.4,30.11,WNW,285,0.0,0.0,94,0.00,,---,0.00,VWS V14.01,2013-09-15 07:52:00,
2013-09-15 03:57:00,56.2,54.8,30.11,WNW,285,0.0,0.0,95,0.00,,---,0.00,VWS V14.01,2013-09-15 07:57:00,
2013-09-15 04:02:00,56.2,54.5,30.12,WNW,284,0.0,0.0,94,0.00,,---,0.00,VWS V14.01,2013-09-15 08:02:00,
2013-09-15 04:07:00,56.3,54.9,30.12,WNW,285,0.0,0.0,95,0.00,,---,0.00,VWS V14.01,2013-09-15 08:07:00,
2013-09-15 04:12:00,56.3,54.9,30.12,WNW,285,0.0,0.0,95,0.00,,---,0.00,VWS V14.01,2013-09-15 08:12:00,
2013-09-15 04:17:00,56.3,54.6,30.12,WNW,285,0.0,0.0,94,0.00,,---,0.00,VWS V14.01,2013-09-15 08:17:00,
2013-09-15 04:22:00,56.2,54.5,30.12,WNW,284,0.0,0.0,94,0.00,,---,0.00,VWS V14.01,2013-09-15 08:22:00,
2013-09-15 04:27:00,56.2,54.5,30.12,WNW,285,0.0,0.0,94,0.00,,---,0.00,VWS V14.01,2013-09-15 08:27:00,
2013-09-15 04:32:00,56.1,54.4,30.12,WNW,285,0.0,0.0,94,0.00,,---,0.00,VWS V14.01,2013-09-15 08:32:00,
2013-09-15 04:37:00,56.1,54.4,30.12,WNW,284,0.0,0.0,94,0.00,,---,0.00,VWS V14.01,2013-09-15 08:37:00,
2013-09-15 04:42:00,56.1,54.4,30.12,WNW,285,0.0,0.0,94,0.00,,---,0.00,VWS V14.01,2013-09-15 08:42:00,
2013-09-15 04:47:00,56.0,54.3,30.12,WNW,285,1.0,1.0,94,0.00,,---,0.00,VWS V14.01,2013-09-15 08:47:00,
2013-09-15 04:52:00,56.1,54.4,30.13,WNW,285,0.0,1.0,94,0.00,,---,0.00,VWS V14.01,2013-09-15 08:52:00,
2013-09-15 04:57:00,56.0,54.3,30.13,WNW,284,0.0,1.0,94,0.00,,---,0.00,VWS V14.01,2013-09-15 08:57:00,
2013-09-15 05:02:00,56.0,54.3,30.13,WNW,284,0.0,1.0,94,0.00,,---,0.00,VWS V14.01,2013-09-15 09:02:00,
2013-09-15 05:07:00,55.9,54.2,30.13,WNW,285,0.0,1.0,94,0.00,,---,0.00,VWS V14.01,2013-09-15 09:07:00,
2013-09-15 05:12:00,55.8,54.1,30.13,WNW,285,1.0,1.0,94,0.00,,---,0.00,VWS V14.01,2013-09-15 09:12:00,
2013-09-15 05:17:00,55.8,54.1,30.14,WNW,284,0.0,1.0,94,0.00,,---,0.00,VWS V14.01,2013-09-15 09:17:00,
2013-09-15 05:22:00,55.7,54.0,30.14,WNW,285,0.0,1.0,94,0.00,,---,0.00,VWS V14.01,2013-09-15 09:22:00,
2013-09-15 05:27:00,55.7,54.0,30.14,WNW,285,0.0,1.0,94,0.00,,---,0.00,VWS V14.01,2013-09-15 09:27:00,
2013-09-15 05:32:00,55.7,54.3,30.14,WNW,285,0.0,1.0,95,0.00,,---,0.00,VWS V14.01,2013-09-15 09:32:00,
2013-09-15 05:37:00,55.7,54.3,30.13,WNW,285,0.0,1.0,95,0.00,,---,0.00,VWS V14.01,2013-09-15 09:37:00,
2013-09-15 05:42:00,55.8,54.4,30.14,WNW,284,0.0,0.0,95,0.00,,---,0.00,VWS V14.01,2013-09-15 09:42:00,
2013-09-15 05:47:00,55.8,54.4,30.14,WNW,284,0.0,1.0,95,0.00,,---,0.00,VWS V14.01,2013-09-15 09:47:00,
2013-09-15 05:52:00,55.8,54.4,30.14,WNW,284,0.0,1.0,95,0.00,,---,0.00,VWS V14.01,2013-09-15 09:52:00,
2013-09-15 05:57:00,55.8,54.4,30.14,WNW,285,0.0,1.0,95,0.00,,---,0.00,VWS V14.01,2013-09-15 09:57:00,
2013-09-15 06:02:00,55.8,54.1,30.14,WNW,284,0.0,1.0,94,0.00,,---,0.00,VWS V14.01,2013-09-15 10:02:00,
2013-09-15 06:07:00,55.8,54.4,30.14,WNW,285,0.0,1.0,95,0.00,,---,0.00,VWS V14.01,2013-09-15 10:07:00,
2013-09-15 06:12:00,55.7,54.0,30.15,WNW,285,0.0,0.0,94,0.00,,---,0.00,VWS V14.01,2013-09-15 10:12:00,
2013-09-15 06:17:00,55.7,54.3,30.15,WNW,285,0.0,1.0,95,0.00,,---,0.00,VWS V14.01,2013-09-15 10:17:00,
2013-09-15 06:22:00,55.7,54.0,30.15,WNW,285,1.0,1.0,94,0.00,,---,0.00,VWS V14.01,2013-09-15 10:22:00,
2013-09-15 06:27:00,55.7,54.0,30.15,WNW,284,0.0,1.0,94,0.00,,---,0.00,VWS V14.01,2013-09-15 10:27:00,
2013-09-15 06:32:00,55.8,54.4,30.15,WNW,285,0.0,1.0,95,0.00,,---,0.00,VWS V14.01,2013-09-15 10:32:00,
2013-09-15 06:37:00,55.8,54.1,30.15,WNW,285,0.0,1.0,94,0.00,,---,0.00,VWS V14.01,2013-09-15 10:37:00,
2013-09-15 06:42:00,55.8,54.1,30.16,WNW,285,1.0,1.0,94,0.00,,---,0.00,VWS V14.01,2013-09-15 10:42:00,
2013-09-15 06:47:00,55.8,54.1,30.16,WNW,285,1.0,1.0,94,0.00,,---,0.00,VWS V14.01,2013-09-15 10:47:00,
2013-09-15 06:52:00,55.8,54.1,30.16,WNW,285,0.0,1.0,94,0.00,,---,0.00,VWS V14.01,2013-09-15 10:52:00,
2013-09-15 06:57:00,55.7,54.0,30.16,WNW,284,0.0,1.0,94,0.00,,---,0.00,VWS V14.01,2013-09-15 10:57:00,
2013-09-15 07:02:00,55.7,54.0,30.16,WNW,285,0.0,1.0,94,0.00,,---,0.00,VWS V14.01,2013-09-15 11:02:00,
2013-09-15 07:07:00,55.6,53.9,30.16,WNW,285,0.0,1.0,94,0.00,,---,0.00,VWS V14.01,2013-09-15 11:07:00,
2013-09-15 07:12:00,55.5,53.8,30.17,WNW,285,0.0,0.0,94,0.00,,---,0.00,VWS V14.01,2013-09-15 11:12:00,
2013-09-15 07:17:00,55.5,53.8,30.17,WNW,284,0.0,1.0,94,0.00,,---,0.00,VWS V14.01,2013-09-15 11:17:00,
2013-09-15 07:22:00,55.4,53.7,30.17,WNW,285,0.0,1.0,94,0.00,,---,0.00,VWS V14.01,2013-09-15 11:22:00,
2013-09-15 07:27:00,55.3,53.6,30.17,WNW,285,0.0,1.0,94,0.00,,---,0.00,VWS V14.01,2013-09-15 11:27:00,
2013-09-15 07:32:00,55.3,53.6,30.17,WNW,284,0.0,1.0,94,0.00,,---,0.00,VWS V14.01,2013-09-15 11:32:00,
2013-09-15 07:37:00,55.2,53.5,30.17,WNW,284,0.0,1.0,94,0.00,,---,0.00,VWS V14.01,2013-09-15 11:37:00,
2013-09-15 07:42:00,55.2,53.5,30.17,WNW,284,0.0,0.0,94,0.00,,---,0.00,VWS V14.01,2013-09-15 11:42:00,
2013-09-15 07:47:00,55.2,53.5,30.17,WNW,285,0.0,0.0,94,0.00,,---,0.00,VWS V14.01,2013-09-15 11:47:00,
2013-09-15 07:52:00,55.3,53.9,30.18,WNW,285,0.0,0.0,95,0.00,,---,0.00,VWS V14.01,2013-09-15 11:52:00,
2013-09-15 07:57:00,55.4,54.0,30.18,WNW,284,0.0,0.0,95,0.00,,---,0.00,VWS V14.01,2013-09-15 11:57:00,
2013-09-15 08:02:00,55.6,54.2,30.18,WNW,284,0.0,0.0,95,0.00,,---,0.00,VWS V14.01,2013-09-15 12:02:00,
2013-09-15 08:07:00,55.8,54.4,30.18,WNW,285,0.0,0.0,95,0.00,,---,0.00,VWS V14.01,2013-09-15 12:07:00,
2013-09-15 08:12:00,56.0,54.6,30.19,WNW,285,0.0,0.0,95,0.00,,---,0.00,VWS V14.01,2013-09-15 12:12:00,
2013-09-15 08:17:00,56.2,54.8,30.18,WNW,285,0.0,1.0,95,0.00,,---,0.00,VWS V14.01,2013-09-15 12:17:00,
2013-09-15 08:22:00,56.4,55.0,30.18,WNW,285,0.0,1.0,95,0.00,,---,0.00,VWS V14.01,2013-09-15 12:22:00,
2013-09-15 08:27:00,56.7,55.3,30.18,WNW,285,0.0,1.0,95,0.00,,---,0.00,VWS V14.01,2013-09-15 12:27:00,
2013-09-15 08:32:00,57.0,55.6,30.18,WNW,285,0.0,1.0,95,0.00,,---,0.00,VWS V14.01,2013-09-15 12:32:00,
2013-09-15 08:37:00,57.4,56.0,30.18,West,259,2.0,3.0,95,0.00,,---,0.00,VWS V14.01,2013-09-15 12:37:00,
2013-09-15 08:42:00,57.8,56.4,30.19,SSE,165,0.0,3.0,95,0.00,,---,0.00,VWS V14.01,2013-09-15 12:42:00,
2013-09-15 08:47:00,58.4,56.7,30.19,SSE,165,1.0,3.0,94,0.00,,---,0.00,VWS V14.01,2013-09-15 12:47:00,
2013-09-15 08:52:00,59.0,57.0,30.18,WSW,246,1.0,4.0,93,0.00,,---,0.00,VWS V14.01,2013-09-15 12:52:00,
2013-09-15 08:57:00,59.3,57.3,30.18,SW,215,1.0,4.0,93,0.00,,---,0.00,VWS V14.01,2013-09-15 12:57:00,
2013-09-15 09:02:00,59.9,57.9,30.18,WSW,248,1.0,4.0,93,0.00,,---,0.00,VWS V14.01,2013-09-15 13:02:00,
2013-09-15 09:07:00,60.6,58.3,30.18,West,262,3.0,4.0,92,0.00,,---,0.00,VWS V14.01,2013-09-15 13:07:00,
2013-09-15 09:12:00,61.5,58.8,30.18,WSW,250,1.0,3.0,91,0.00,,---,0.00,VWS V14.01,2013-09-15 13:12:00,
2013-09-15 09:17:00,62.9,59.9,30.18,WSW,238,0.0,3.0,90,0.00,,---,0.00,VWS V14.01,2013-09-15 13:17:00,
2013-09-15 09:22:00,64.2,59.9,30.18,WSW,246,1.0,4.0,86,0.00,,---,0.00,VWS V14.01,2013-09-15 13:22:00,
2013-09-15 09:27:00,65.4,60.5,30.18,WSW,257,1.0,4.0,84,0.00,,---,0.00,VWS V14.01,2013-09-15 13:27:00,
2013-09-15 09:32:00,66.7,62.0,30.18,WSW,257,1.0,4.0,85,0.00,,---,0.00,VWS V14.01,2013-09-15 13:32:00,
2013-09-15 09:37:00,68.0,62.3,30.18,WSW,246,2.0,5.0,82,0.00,,---,0.00,VWS V14.01,2013-09-15 13:37:00,
2013-09-15 09:42:00,68.9,62.5,30.18,WSW,248,1.0,3.0,80,0.00,,---,0.00,VWS V14.01,2013-09-15 13:42:00,
2013-09-15 09:47:00,69.9,62.7,30.18,WSW,249,0.0,3.0,78,0.00,,---,0.00,VWS V14.01,2013-09-15 13:47:00,
2013-09-15 09:52:00,71.0,63.4,30.18,WSW,253,1.0,3.0,77,0.00,,---,0.00,VWS V14.01,2013-09-15 13:52:00,
2013-09-15 09:57:00,71.8,63.1,30.18,WSW,250,2.0,5.0,74,0.00,,---,0.00,VWS V14.01,2013-09-15 13:57:00,
2013-09-15 10:02:00,72.3,63.6,30.18,SW,235,1.0,5.0,74,0.00,,---,0.00,VWS V14.01,2013-09-15 14:02:00,
2013-09-15 10:07:00,72.2,63.1,30.18,WSW,240,1.0,5.0,73,0.00,,---,0.00,VWS V14.01,2013-09-15 14:07:00,
2013-09-15 10:12:00,72.4,63.7,30.18,WSW,245,1.0,2.0,74,0.00,,---,0.00,VWS V14.01,2013-09-15 14:12:00,
2013-09-15 10:17:00,73.0,63.5,30.18,West,260,1.0,3.0,72,0.00,,---,0.00,VWS V14.01,2013-09-15 14:17:00,
2013-09-15 10:22:00,73.7,64.5,30.18,West,260,2.0,3.0,73,0.00,,---,0.00,VWS V14.01,2013-09-15 14:22:00,
2013-09-15 10:27:00,73.5,63.1,30.19,South,191,0.0,3.0,70,0.00,,---,0.00,VWS V14.01,2013-09-15 14:27:00,
2013-09-15 10:32:00,73.0,62.7,30.19,South,190,1.0,3.0,70,0.00,,---,0.00,VWS V14.01,2013-09-15 14:32:00,
2013-09-15 10:37:00,73.2,64.4,30.19,West,274,1.0,3.0,74,0.00,,---,0.00,VWS V14.01,2013-09-15 14:37:00,
2013-09-15 10:42:00,74.3,64.7,30.19,NW,325,2.0,4.0,72,0.00,,---,0.00,VWS V14.01,2013-09-15 14:42:00,
2013-09-15 10:47:00,75.4,65.3,30.19,WNW,302,2.0,4.0,71,0.00,,---,0.00,VWS V14.01,2013-09-15 14:47:00,
2013-09-15 10:52:00,76.4,65.1,30.18,NW,311,1.0,4.0,68,0.00,,---,0.00,VWS V14.01,2013-09-15 14:52:00,
2013-09-15 10:58:00,76.6,65.3,30.18,WSW,250,1.0,4.0,68,0.00,,---,0.00,VWS V14.01,2013-09-15 14:58:00,
2013-09-15 11:03:00,76.9,64.7,30.18,WSW,244,3.0,4.0,66,0.00,,---,0.00,VWS V14.01,2013-09-15 15:03:00,
2013-09-15 11:08:00,76.7,64.9,30.19,North,355,1.0,1.0,67,0.00,,---,0.00,VWS V14.01,2013-09-15 15:08:00,
2013-09-15 11:13:00,76.9,66.0,30.19,SW,225,0.0,4.0,69,0.00,,---,0.00,VWS V14.01,2013-09-15 15:13:00,
2013-09-15 11:18:00,77.1,65.7,30.18,WNW,290,1.0,4.0,68,0.00,,---,0.00,VWS V14.01,2013-09-15 15:18:00,
2013-09-15 11:23:00,77.5,65.3,30.18,NW,322,2.0,4.0,66,0.00,,---,0.00,VWS V14.01,2013-09-15 15:23:00,
2013-09-15 11:28:00,77.2,65.4,30.18,ENE,78,0.0,4.0,67,0.00,,---,0.00,VWS V14.01,2013-09-15 15:28:00,
2013-09-15 11:33:00,76.8,65.4,30.18,ESE,112,3.0,4.0,68,0.00,,---,0.00,VWS V14.01,2013-09-15 15:33:00,
2013-09-15 11:38:00,75.5,65.0,30.18,West,281,0.0,2.0,70,0.00,,---,0.00,VWS V14.01,2013-09-15 15:38:00,
2013-09-15 11:43:00,75.2,65.2,30.18,SSW,208,2.0,3.0,71,0.00,,---,0.00,VWS V14.01,2013-09-15 15:43:00,
2013-09-15 11:48:00,75.6,66.3,30.18,SW,236,3.0,4.0,73,0.00,,---,0.00,VWS V14.01,2013-09-15 15:48:00,
2013-09-15 11:53:00,76.8,65.9,30.18,SSE,161,1.0,5.0,69,0.00,,---,0.00,VWS V14.01,2013-09-15 15:53:00,
2013-09-15 11:58:00,76.7,65.8,30.18,SSW,203,0.0,5.0,69,0.00,,---,0.00,VWS V14.01,2013-09-15 15:58:00,
2013-09-15 12:03:00,76.4,65.5,30.18,SW,233,0.0,5.0,69,0.00,,---,0.00,VWS V14.01,2013-09-15 16:03:00,
2013-09-15 12:08:00,76.5,65.6,30.18,ESE,118,1.0,1.0,69,0.00,,---,0.00,VWS V14.01,2013-09-15 16:08:00,
2013-09-15 12:13:00,76.5,66.4,30.18,ENE,70,2.0,5.0,71,0.00,,---,0.00,VWS V14.01,2013-09-15 16:13:00,
2013-09-15 12:18:00,76.5,66.4,30.18,WSW,253,0.0,5.0,71,0.00,,---,0.00,VWS V14.01,2013-09-15 16:18:00,
2013-09-15 12:23:00,77.0,66.9,30.17,NNW,343,1.0,5.0,71,0.00,,---,0.00,VWS V14.01,2013-09-15 16:23:00,
2013-09-15 12:28:00,77.9,66.9,30.17,WSW,244,2.0,9.0,69,0.00,,---,0.00,VWS V14.01,2013-09-15 16:28:00,
2013-09-15 12:33:00,78.8,67.8,30.17,South,170,0.0,9.0,69,0.00,,---,0.00,VWS V14.01,2013-09-15 16:33:00,
2013-09-15 12:38:00,79.9,69.2,30.17,SSW,192,1.0,1.0,70,0.00,,---,0.00,VWS V14.01,2013-09-15 16:38:00,
2013-09-15 12:43:00,79.4,66.6,30.17,South,182,0.0,6.0,65,0.00,,---,0.00,VWS V14.01,2013-09-15 16:43:00,
2013-09-15 12:48:00,78.9,67.9,30.16,SSW,208,3.0,6.0,69,0.00,,---,0.00,VWS V14.01,2013-09-15 16:48:00,
2013-09-15 12:53:00,79.3,67.4,30.16,SSE,156,0.0,6.0,67,0.00,,---,0.00,VWS V14.01,2013-09-15 16:53:00,
2013-09-15 12:58:00,79.8,68.7,30.16,WSW,246,3.0,6.0,69,0.00,,---,0.00,VWS V14.01,2013-09-15 16:58:00,
2013-09-15 13:03:00,80.7,67.8,30.16,NW,306,1.0,6.0,65,0.00,,---,0.00,VWS V14.01,2013-09-15 17:03:00,
2013-09-15 13:08:00,80.9,68.5,30.16,ESE,102,3.0,3.0,66,0.00,,---,0.00,VWS V14.01,2013-09-15 17:08:00,
2013-09-15 13:13:00,80.7,68.3,30.16,SSW,200,1.0,4.0,66,0.00,,---,0.00,VWS V14.01,2013-09-15 17:13:00,
2013-09-15 13:18:00,80.7,67.8,30.16,ESE,107,0.0,4.0,65,0.00,,---,0.00,VWS V14.01,2013-09-15 17:18:00,
2013-09-15 13:23:00,80.8,68.4,30.16,WSW,254,2.0,4.0,66,0.00,,---,0.00,VWS V14.01,2013-09-15 17:23:00,
2013-09-15 13:28:00,81.2,68.3,30.15,SE,141,3.0,4.0,65,0.00,,---,0.00,VWS V14.01,2013-09-15 17:28:00,
2013-09-15 13:33:00,81.3,69.3,30.15,WSW,255,3.0,4.0,67,0.00,,---,0.00,VWS V14.01,2013-09-15 17:33:00,
2013-09-15 13:38:00,81.8,68.4,30.15,SW,230,1.0,2.0,64,0.00,,---,0.00,VWS V14.01,2013-09-15 17:38:00,
2013-09-15 13:43:00,81.8,68.4,30.15,WSW,254,6.0,10.0,64,0.00,,---,0.00,VWS V14.01,2013-09-15 17:43:00,
2013-09-15 13:48:00,82.0,68.6,30.14,West,264,1.0,10.0,64,0.00,,---,0.00,VWS V14.01,2013-09-15 17:48:00,
2013-09-15 13:53:00,82.1,67.3,30.14,ESE,115,1.0,10.0,61,0.00,,---,0.00,VWS V14.01,2013-09-15 17:53:00,
2013-09-15 13:58:00,81.8,68.4,30.14,South,178,1.0,10.0,64,0.00,,---,0.00,VWS V14.01,2013-09-15 17:58:00,
2013-09-15 14:03:00,81.5,68.6,30.14,ESE,119,2.0,10.0,65,0.00,,---,0.00,VWS V14.01,2013-09-15 18:03:00,
2013-09-15 14:08:00,81.2,67.4,30.14,SE,136,2.0,3.0,63,0.00,,---,0.00,VWS V14.01,2013-09-15 18:08:00,
2013-09-15 14:13:00,81.4,68.5,30.13,ESE,118,1.0,3.0,65,0.00,,---,0.00,VWS V14.01,2013-09-15 18:13:00,
2013-09-15 14:18:00,81.7,67.9,30.13,SSE,157,1.0,3.0,63,0.00,,---,0.00,VWS V14.01,2013-09-15 18:18:00,
2013-09-15 14:23:00,82.4,69.9,30.13,SW,225,1.0,3.0,66,0.00,,---,0.00,VWS V14.01,2013-09-15 18:23:00,
2013-09-15 14:28:00,83.1,68.7,30.13,WSW,242,3.0,3.0,62,0.00,,---,0.00,VWS V14.01,2013-09-15 18:28:00,
2013-09-15 14:33:00,83.4,68.1,30.13,WNW,285,1.0,3.0,60,0.00,,---,0.00,VWS V14.01,2013-09-15 18:33:00,
2013-09-15 14:38:00,83.6,67.8,30.13,South,178,1.0,2.0,59,0.00,,---,0.00,VWS V14.01,2013-09-15 18:38:00,
2013-09-15 14:43:00,83.1,67.8,30.12,SW,230,2.0,4.0,60,0.00,,---,0.00,VWS V14.01,2013-09-15 18:43:00,
2013-09-15 14:48:00,82.8,67.5,30.12,ESE,123,1.0,4.0,60,0.00,,---,0.00,VWS V14.01,2013-09-15 18:48:00,
2013-09-15 14:53:00,82.4,67.1,30.12,ESE,120,0.0,4.0,60,0.00,,---,0.00,VWS V14.01,2013-09-15 18:53:00,
2013-09-15 14:58:00,82.3,68.0,30.12,West,259,1.0,4.0,62,0.00,,---,0.00,VWS V14.01,2013-09-15 18:58:00,
2013-09-15 15:03:00,82.2,66.9,30.11,South,176,0.0,4.0,60,0.00,,---,0.00,VWS V14.01,2013-09-15 19:03:00,
2013-09-15 15:08:00,82.1,66.8,30.11,WNW,298,1.0,2.0,60,0.00,,---,0.00,VWS V14.01,2013-09-15 19:08:00,
2013-09-15 15:13:00,82.1,68.7,30.11,WSW,245,1.0,3.0,64,0.00,,---,0.00,VWS V14.01,2013-09-15 19:13:00,
2013-09-15 15:18:00,82.2,66.9,30.11,SE,140,1.0,5.0,60,0.00,,---,0.00,VWS V14.01,2013-09-15 19:18:00,
2013-09-15 15:23:00,82.1,65.4,30.11,East,96,1.0,5.0,57,0.00,,---,0.00,VWS V14.01,2013-09-15 19:23:00,
2013-09-15 15:28:00,81.6,66.4,30.11,East,96,0.0,5.0,60,0.00,,---,0.00,VWS V14.01,2013-09-15 19:28:00,
2013-09-15 15:33:00,81.3,65.6,30.11,SE,128,0.0,5.0,59,0.00,,---,0.00,VWS V14.01,2013-09-15 19:33:00,
2013-09-15 15:38:00,80.9,65.2,30.10,SE,128,1.0,1.0,59,0.00,,---,0.00,VWS V14.01,2013-09-15 19:38:00,
2013-09-15 15:43:00,80.5,65.3,30.11,SE,130,1.0,1.0,60,0.00,,---,0.00,VWS V14.01,2013-09-15 19:43:00,
2013-09-15 15:48:00,80.6,65.9,30.10,WSW,252,0.0,3.0,61,0.00,,---,0.00,VWS V14.01,2013-09-15 19:48:00,
2013-09-15 15:53:00,80.6,66.8,30.10,South,188,1.0,4.0,63,0.00,,---,0.00,VWS V14.01,2013-09-15 19:53:00,
2013-09-15 15:58:00,80.6,65.9,30.10,ESE,123,2.0,4.0,61,0.00,,---,0.00,VWS V14.01,2013-09-15 19:58:00,
2013-09-15 16:03:00,80.6,66.8,30.10,WNW,284,0.0,4.0,63,0.00,,---,0.00,VWS V14.01,2013-09-15 20:03:00,
2013-09-15 16:08:00,80.9,67.6,30.10,SW,233,3.0,3.0,64,0.00,,---,0.00,VWS V14.01,2013-09-15 20:08:00,
2013-09-15 16:13:00,81.1,65.9,30.10,West,277,3.0,4.0,60,0.00,,---,0.00,VWS V14.01,2013-09-15 20:13:00,
2013-09-15 16:18:00,81.4,65.7,30.10,West,271,1.0,4.0,59,0.00,,---,0.00,VWS V14.01,2013-09-15 20:18:00,
2013-09-15 16:23:00,81.4,65.7,30.10,WSW,253,2.0,4.0,59,0.00,,---,0.00,VWS V14.01,2013-09-15 20:23:00,
2013-09-15 16:28:00,81.2,66.9,30.10,SE,145,0.0,4.0,62,0.00,,---,0.00,VWS V14.01,2013-09-15 20:28:00,
2013-09-15 16:33:00,81.1,67.3,30.10,SSE,167,2.0,4.0,63,0.00,,---,0.00,VWS V14.01,2013-09-15 20:33:00,
2013-09-15 16:38:00,80.7,65.5,30.10,ESE,121,1.0,1.0,60,0.00,,---,0.00,VWS V14.01,2013-09-15 20:38:00,
2013-09-15 16:43:00,80.3,64.7,30.10,South,188,1.0,2.0,59,0.00,,---,0.00,VWS V14.01,2013-09-15 20:43:00,
2013-09-15 16:48:00,80.2,66.0,30.10,South,188,1.0,2.0,62,0.00,,---,0.00,VWS V14.01,2013-09-15 20:48:00,
2013-09-15 16:53:00,80.1,66.8,30.10,SW,230,0.0,3.0,64,0.00,,---,0.00,VWS V14.01,2013-09-15 20:53:00,
2013-09-15 16:58:00,79.8,66.6,30.10,South,191,1.0,3.0,64,0.00,,---,0.00,VWS V14.01,2013-09-15 20:58:00,
2013-09-15 17:03:00,79.7,66.0,30.10,ESE,113,2.0,3.0,63,0.00,,---,0.00,VWS V14.01,2013-09-15 21:03:00,
2013-09-15 17:08:00,80.0,67.2,30.10,WSW,240,0.0,1.0,65,0.00,,---,0.00,VWS V14.01,2013-09-15 21:08:00,
2013-09-15 17:13:00,80.4,66.7,30.10,WNW,303,0.0,2.0,63,0.00,,---,0.00,VWS V14.01,2013-09-15 21:13:00,
2013-09-15 17:18:00,80.6,67.3,30.10,West,273,1.0,2.0,64,0.00,,---,0.00,VWS V14.01,2013-09-15 21:18:00,
2013-09-15 17:23:00,80.5,67.7,30.10,SSW,196,0.0,2.0,65,0.00,,---,0.00,VWS V14.01,2013-09-15 21:23:00,
2013-09-15 17:28:00,80.3,67.0,30.10,SSW,210,0.0,2.0,64,0.00,,---,0.00,VWS V14.01,2013-09-15 21:28:00,
2013-09-15 17:33:00,80.2,67.8,30.10,SSW,211,0.0,2.0,66,0.00,,---,0.00,VWS V14.01,2013-09-15 21:33:00,
2013-09-15 17:38:00,80.0,68.1,30.10,SW,215,0.0,0.0,67,0.00,,---,0.00,VWS V14.01,2013-09-15 21:38:00,
2013-09-15 17:43:00,79.7,67.8,30.10,SW,214,0.0,1.0,67,0.00,,---,0.00,VWS V14.01,2013-09-15 21:43:00,
2013-09-15 17:47:00,79.4,67.1,30.10,SW,214,0.0,2.0,66,0.00,,---,0.00,VWS V14.01,2013-09-15 21:47:00,
2013-09-15 17:52:00,79.3,67.8,30.10,SW,215,0.0,2.0,68,0.00,,---,0.00,VWS V14.01,2013-09-15 21:52:00,
2013-09-15 17:57:00,79.2,68.2,30.10,SW,214,1.0,2.0,69,0.00,,---,0.00,VWS V14.01,2013-09-15 21:57:00,
2013-09-15 18:02:00,79.1,67.6,30.11,SSW,205,0.0,2.0,68,0.00,,---,0.00,VWS V14.01,2013-09-15 22:02:00,
2013-09-15 18:07:00,79.0,67.6,30.11,SSW,205,0.0,0.0,68,0.00,,---,0.00,VWS V14.01,2013-09-15 22:07:00,
2013-09-15 18:12:00,78.7,67.3,30.11,SSW,205,0.0,0.0,68,0.00,,---,0.00,VWS V14.01,2013-09-15 22:12:00,
2013-09-15 18:17:00,78.4,68.2,30.10,SSW,205,0.0,1.0,71,0.00,,---,0.00,VWS V14.01,2013-09-15 22:17:00,
2013-09-15 18:22:00,78.2,68.0,30.10,SSW,205,0.0,1.0,71,0.00,,---,0.00,VWS V14.01,2013-09-15 22:22:00,
2013-09-15 18:27:00,77.8,67.7,30.10,SSW,205,0.0,1.0,71,0.00,,---,0.00,VWS V14.01,2013-09-15 22:27:00,
2013-09-15 18:32:00,77.4,67.7,30.10,SSW,205,0.0,1.0,72,0.00,,---,0.00,VWS V14.01,2013-09-15 22:32:00,
2013-09-15 18:37:00,77.0,67.7,30.10,SSW,205,0.0,0.0,73,0.00,,---,0.00,VWS V14.01,2013-09-15 22:37:00,
2013-09-15 18:42:00,76.7,67.4,30.10,SSW,205,0.0,0.0,73,0.00,,---,0.00,VWS V14.01,2013-09-15 22:42:00,
2013-09-15 18:47:00,76.3,67.4,30.10,SSW,205,0.0,0.0,74,0.00,,---,0.00,VWS V14.01,2013-09-15 22:47:00,
2013-09-15 18:52:00,75.9,67.0,30.10,SSW,205,0.0,0.0,74,0.00,,---,0.00,VWS V14.01,2013-09-15 22:52:00,
2013-09-15 18:57:00,75.7,67.6,30.10,SSW,205,0.0,0.0,76,0.00,,---,0.00,VWS V14.01,2013-09-15 22:57:00,
2013-09-15 19:02:00,75.4,67.7,30.11,SSW,205,0.0,0.0,77,0.00,,---,0.00,VWS V14.01,2013-09-15 23:02:00,
2013-09-15 19:07:00,75.2,67.9,30.11,SSW,205,0.0,0.0,78,0.00,,---,0.00,VWS V14.01,2013-09-15 23:07:00,
2013-09-15 19:12:00,74.9,67.9,30.11,SSW,205,0.0,0.0,79,0.00,,---,0.00,VWS V14.01,2013-09-15 23:12:00,
2013-09-15 19:17:00,74.7,67.8,30.11,SSW,205,0.0,0.0,79,0.00,,---,0.00,VWS V14.01,2013-09-15 23:17:00,
2013-09-15 19:22:00,74.6,68.0,30.10,SSW,205,0.0,0.0,80,0.00,,---,0.00,VWS V14.01,2013-09-15 23:22:00,
2013-09-15 19:27:00,74.4,68.2,30.11,SSW,205,0.0,0.0,81,0.00,,---,0.00,VWS V14.01,2013-09-15 23:27:00,
2013-09-15 19:32:00,74.2,68.0,30.11,SSW,205,0.0,0.0,81,0.00,,---,0.00,VWS V14.01,2013-09-15 23:32:00,
2013-09-15 19:37:00,74.0,68.2,30.10,SSW,205,0.0,0.0,82,0.00,,---,0.00,VWS V14.01,2013-09-15 23:37:00,
2013-09-15 19:42:00,73.7,67.9,30.10,SSW,205,0.0,0.0,82,0.00,,---,0.00,VWS V14.01,2013-09-15 23:42:00,
2013-09-15 19:47:00,73.4,67.9,30.10,SSW,205,0.0,0.0,83,0.00,,---,0.00,VWS V14.01,2013-09-15 23:47:00,
2013-09-15 19:52:00,73.0,67.5,30.11,SSW,205,0.0,0.0,83,0.00,,---,0.00,VWS V14.01,2013-09-15 23:52:00,
2013-09-15 19:57:00,72.7,67.6,30.11,SSW,205,0.0,0.0,84,0.00,,---,0.00,VWS V14.01,2013-09-15 23:57:00,
2013-09-15 20:02:00,72.4,67.3,30.11,SSW,205,0.0,0.0,84,0.00,,---,0.00,VWS V14.01,2013-09-16 00:02:00,
2013-09-15 20:07:00,72.2,67.1,30.11,SSW,205,0.0,0.0,84,0.00,,---,0.00,VWS V14.01,2013-09-16 00:07:00,
2013-09-15 20:12:00,72.0,66.9,30.11,SSW,205,0.0,0.0,84,0.00,,---,0.00,VWS V14.01,2013-09-16 00:12:00,
2013-09-15 20:17:00,71.7,66.6,30.11,SSW,205,0.0,0.0,84,0.00,,---,0.00,VWS V14.01,2013-09-16 00:17:00,
2013-09-15 20:22:00,71.4,67.0,30.11,SSW,205,0.0,0.0,86,0.00,,---,0.00,VWS V14.01,2013-09-16 00:22:00,
2013-09-15 20:27:00,71.1,67.0,30.11,SSW,205,0.0,0.0,87,0.00,,---,0.00,VWS V14.01,2013-09-16 00:27:00,
2013-09-15 20:32:00,70.8,66.7,30.11,SSW,205,0.0,0.0,87,0.00,,---,0.00,VWS V14.01,2013-09-16 00:32:00,
2013-09-15 20:37:00,70.4,66.7,30.12,SSW,205,0.0,0.0,88,0.00,,---,0.00,VWS V14.01,2013-09-16 00:37:00,
2013-09-15 20:42:00,70.2,66.5,30.12,SSW,205,0.0,0.0,88,0.00,,---,0.00,VWS V14.01,2013-09-16 00:42:00,
2013-09-15 20:47:00,69.9,65.9,30.12,SSW,205,0.0,0.0,87,0.00,,---,0.00,VWS V14.01,2013-09-16 00:47:00,
2013-09-15 20:52:00,69.6,65.9,30.12,SSW,205,0.0,0.0,88,0.00,,---,0.00,VWS V14.01,2013-09-16 00:52:00,
2013-09-15 20:57:00,69.4,65.7,30.12,SSW,205,0.0,0.0,88,0.00,,---,0.00,VWS V14.01,2013-09-16 00:57:00,
2013-09-15 21:02:00,69.2,65.8,30.12,SSW,205,0.0,0.0,89,0.00,,---,0.00,VWS V14.01,2013-09-16 01:02:00,
2013-09-15 21:07:00,68.9,65.5,30.12,SSW,205,0.0,0.0,89,0.00,,---,0.00,VWS V14.01,2013-09-16 01:07:00,
2013-09-15 21:12:00,68.7,65.7,30.11,SSW,205,0.0,0.0,90,0.00,,---,0.00,VWS V14.01,2013-09-16 01:12:00,
2013-09-15 21:17:00,68.5,65.8,30.11,SSW,205,0.0,0.0,91,0.00,,---,0.00,VWS V14.01,2013-09-16 01:17:00,
2013-09-15 21:22:00,68.3,65.3,30.12,SSW,205,0.0,0.0,90,0.00,,---,0.00,VWS V14.01,2013-09-16 01:22:00,
2013-09-15 21:27:00,68.1,65.4,30.12,SSW,205,0.0,1.0,91,0.00,,---,0.00,VWS V14.01,2013-09-16 01:27:00,
2013-09-15 21:32:00,67.9,65.2,30.12,SSW,205,0.0,1.0,91,0.00,,---,0.00,VWS V14.01,2013-09-16 01:32:00,
2013-09-15 21:37:00,67.7,65.0,30.12,SSW,205,0.0,1.0,91,0.00,,---,0.00,VWS V14.01,2013-09-16 01:37:00,
2013-09-15 21:42:00,67.5,64.8,30.12,SSW,205,0.0,0.0,91,0.00,,---,0.00,VWS V14.01,2013-09-16 01:42:00,
2013-09-15 21:47:00,67.3,64.6,30.12,SSW,205,0.0,0.0,91,0.00,,---,0.00,VWS V14.01,2013-09-16 01:47:00,
2013-09-15 21:52:00,67.1,64.7,30.13,SSW,205,0.0,0.0,92,0.00,,---,0.00,VWS V14.01,2013-09-16 01:52:00,
2013-09-15 21:57:00,66.9,64.2,30.12,SSW,205,0.0,0.0,91,0.00,,---,0.00,VWS V14.01,2013-09-16 01:57:00,
2013-09-15 22:02:00,66.8,64.4,30.12,SSW,205,0.0,0.0,92,0.00,,---,0.00,VWS V14.01,2013-09-16 02:02:00,
2013-09-15 22:07:00,66.7,64.6,30.12,SSW,205,0.0,0.0,93,0.00,,---,0.00,VWS V14.01,2013-09-16 02:07:00,
2013-09-15 22:12:00,66.6,64.5,30.12,SSW,205,1.0,1.0,93,0.00,,---,0.00,VWS V14.01,2013-09-16 02:12:00,
2013-09-15 22:17:00,66.5,64.4,30.12,SSW,205,0.0,1.0,93,0.00,,---,0.00,VWS V14.01,2013-09-16 02:17:00,
2013-09-15 22:22:00,66.4,64.3,30.12,SSW,205,0.0,1.0,93,0.00,,---,0.00,VWS V14.01,2013-09-16 02:22:00,
2013-09-15 22:27:00,66.2,63.8,30.12,SSW,205,1.0,1.0,92,0.00,,---,0.00,VWS V14.01,2013-09-16 02:27:00,
2013-09-15 22:32:00,66.0,63.9,30.12,SSW,205,0.0,1.0,93,0.00,,---,0.00,VWS V14.01,2013-09-16 02:32:00,
2013-09-15 22:37:00,65.9,63.8,30.12,SSW,205,1.0,1.0,93,0.00,,---,0.00,VWS V14.01,2013-09-16 02:37:00,
2013-09-15 22:42:00,65.8,64.0,30.12,SSW,205,0.0,1.0,94,0.00,,---,0.00,VWS V14.01,2013-09-16 02:42:00,
2013-09-15 22:47:00,65.8,64.0,30.12,SSW,205,0.0,1.0,94,0.00,,---,0.00,VWS V14.01,2013-09-16 02:47:00,
2013-09-15 22:52:00,65.8,64.0,30.12,SSW,205,0.0,1.0,94,0.00,,---,0.00,VWS V14.01,2013-09-16 02:52:00,
2013-09-15 22:57:00,65.8,64.0,30.13,SSW,205,1.0,1.0,94,0.00,,---,0.00,VWS V14.01,2013-09-16 02:57:00,
2013-09-15 23:02:00,65.8,64.0,30.13,SSW,205,1.0,1.0,94,0.00,,---,0.00,VWS V14.01,2013-09-16 03:02:00,
2013-09-15 23:07:00,65.7,63.9,30.13,SSW,204,0.0,1.0,94,0.00,,---,0.00,VWS V14.01,2013-09-16 03:07:00,
2013-09-15 23:12:00,65.6,63.8,30.13,SSW,204,0.0,1.0,94,0.00,,---,0.00,VWS V14.01,2013-09-16 03:12:00,
2013-09-15 23:17:00,65.6,63.8,30.13,SSW,204,0.0,1.0,94,0.00,,---,0.00,VWS V14.01,2013-09-16 03:17:00,
2013-09-15 23:22:00,65.4,63.6,30.13,SSW,203,0.0,1.0,94,0.00,,---,0.00,VWS V14.01,2013-09-16 03:22:00,
2013-09-15 23:27:00,65.2,63.4,30.13,SSW,204,0.0,1.0,94,0.00,,---,0.00,VWS V14.01,2013-09-16 03:27:00,
2013-09-15 23:32:00,65.1,63.3,30.13,SSW,204,0.0,1.0,94,0.00,,---,0.00,VWS V14.01,2013-09-16 03:32:00,
2013-09-15 23:37:00,65.1,63.6,30.13,SSW,204,0.0,1.0,95,0.00,,---,0.00,VWS V14.01,2013-09-16 03:37:00,
2013-09-15 23:42:00,65.1,63.6,30.13,SSW,204,0.0,0.0,95,0.00,,---,0.00,VWS V14.01,2013-09-16 03:42:00,
2013-09-15 23:47:00,64.9,63.1,30.13,SSW,204,0.0,0.0,94,0.00,,---,0.00,VWS V14.01,2013-09-16 03:47:00,
2013-09-15 23:52:00,64.8,63.0,30.13,SSW,204,0.0,0.0,94,0.00,,---,0.00,VWS V14.01,2013-09-16 03:52:00,
2013-09-15 23:57:00,64.6,62.8,30.13,SSW,204,0.0,0.0,94,0.00,,---,0.00,VWS V14.01,2013-09-16 03:57:00,